sensor_id;sensor_type;location;lat;lon;timestamp;pressure;altitude;pressure_sealevel;temperature;humidity
31585;BME280;18191;51.288;12.390;2023-04-01T00:01:11;49148.09;;;-144.47;96.22
31585;BME280;18191;51.288;12.390;2023-04-01T00:06:03;49160.03;;;-144.47;96.04
31585;BME280;18191;51.288;12.390;2023-04-01T00:10:54;49169.97;;;-144.47;96.28
31585;BME280;18191;51.288;12.390;2023-04-01T00:15:44;49138.16;;;-144.47;95.83
31585;BME280;18191;51.288;12.390;2023-04-01T00:20:35;49136.16;;;-144.47;96.11
31585;BME280;18191;51.288;12.390;2023-04-01T00:25:26;49181.91;;;-144.47;96.33
31585;BME280;18191;51.288;12.390;2023-04-01T00:30:16;49142.13;;;-144.47;95.98
31585;BME280;18191;51.288;12.390;2023-04-01T00:35:07;49160.03;;;-144.47;96.50
31585;BME280;18191;51.288;12.390;2023-04-01T00:39:57;49164.00;;;-144.47;96.11
31585;BME280;18191;51.288;12.390;2023-04-01T00:44:51;49120.25;;;-144.47;95.66
31585;BME280;18191;51.288;12.390;2023-04-01T00:49:42;49156.03;;;-144.47;95.86
31585;BME280;18191;51.288;12.390;2023-04-01T00:54:33;49156.03;;;-144.47;95.98
31585;BME280;18191;51.288;12.390;2023-04-01T00:59:32;49124.22;;;-144.47;95.33
31585;BME280;18191;51.288;12.390;2023-04-01T01:04:27;49140.13;;;-144.47;96.10
31585;BME280;18191;51.288;12.390;2023-04-01T01:09:38;49120.25;;;-144.47;95.64
31585;BME280;18191;51.288;12.390;2023-04-01T01:14:45;49126.22;;;-144.47;95.75
31585;BME280;18191;51.288;12.390;2023-04-01T01:20:42;49185.88;;;-144.47;96.31
31585;BME280;18191;51.288;12.390;2023-04-01T01:25:13;49144.09;;;-144.47;96.52
31585;BME280;18191;51.288;12.390;2023-04-01T01:30:31;49160.03;;;-144.47;95.53
31585;BME280;18191;51.288;12.390;2023-04-01T01:35:21;49156.03;;;-144.47;95.52
31585;BME280;18191;51.288;12.390;2023-04-01T01:40:12;49152.06;;;-144.47;95.16
31585;BME280;18191;51.288;12.390;2023-04-01T01:45:04;49177.94;;;-144.47;95.00
31585;BME280;18191;51.288;12.390;2023-04-01T01:49:55;49120.25;;;-144.47;95.10
31585;BME280;18191;51.288;12.390;2023-04-01T01:54:53;49140.13;;;-144.47;94.88
31585;BME280;18191;51.288;12.390;2023-04-01T01:59:43;49144.09;;;-144.47;95.00
31585;BME280;18191;51.288;12.390;2023-04-01T02:04:37;49112.28;;;-144.47;94.92
31585;BME280;18191;51.288;12.390;2023-04-01T02:09:29;49173.94;;;-144.47;94.83
31585;BME280;18191;51.288;12.390;2023-04-01T02:14:23;49154.06;;;-144.47;95.11
31585;BME280;18191;51.288;12.390;2023-04-01T02:19:15;49166.00;;;-144.47;94.66
31585;BME280;18191;51.288;12.390;2023-04-01T02:24:12;49191.84;;;-144.47;95.34
31585;BME280;18191;51.288;12.390;2023-04-01T02:29:04;49179.91;;;-144.47;95.08
31585;BME280;18191;51.288;12.390;2023-04-01T02:33:56;49116.25;;;-144.47;94.85
31585;BME280;18191;51.288;12.390;2023-04-01T02:38:46;49160.03;;;-144.47;95.11
31585;BME280;18191;51.288;12.390;2023-04-01T02:43:36;49126.22;;;-144.47;94.40
31585;BME280;18191;51.288;12.390;2023-04-01T02:48:26;49164.00;;;-144.47;94.68
31585;BME280;18191;51.288;12.390;2023-04-01T02:53:17;49148.09;;;-144.47;94.03
31585;BME280;18191;51.288;12.390;2023-04-01T02:58:07;49164.00;;;-144.47;93.99
31585;BME280;18191;51.288;12.390;2023-04-01T03:02:57;49136.16;;;-144.47;93.30
31585;BME280;18191;51.288;12.390;2023-04-01T03:07:47;49158.03;;;-144.47;93.93
31585;BME280;18191;51.288;12.390;2023-04-01T03:12:37;49126.22;;;-144.47;94.47
31585;BME280;18191;51.288;12.390;2023-04-01T03:17:27;49148.09;;;-144.47;92.70
31585;BME280;18191;51.288;12.390;2023-04-01T03:22:18;49148.09;;;-144.47;92.82
31585;BME280;18191;51.288;12.390;2023-04-01T03:27:10;49164.00;;;-144.47;92.77
31585;BME280;18191;51.288;12.390;2023-04-01T03:32:01;49167.97;;;-144.47;92.61
31585;BME280;18191;51.288;12.390;2023-04-01T03:36:51;49112.28;;;-144.47;92.77
31585;BME280;18191;51.288;12.390;2023-04-01T03:41:41;49108.31;;;-144.47;93.14
31585;BME280;18191;51.288;12.390;2023-04-01T03:46:31;49154.06;;;-144.47;92.51
31585;BME280;18191;51.288;12.390;2023-04-01T03:51:22;49160.03;;;-144.47;92.90
31585;BME280;18191;51.288;12.390;2023-04-01T03:56:12;49144.09;;;-144.47;92.23
31585;BME280;18191;51.288;12.390;2023-04-01T04:01:02;49120.25;;;-144.47;92.56
31585;BME280;18191;51.288;12.390;2023-04-01T04:05:52;49140.13;;;-144.47;92.44
31585;BME280;18191;51.288;12.390;2023-04-01T04:10:43;49167.97;;;-144.47;92.63
31585;BME280;18191;51.288;12.390;2023-04-01T04:15:33;49122.22;;;-144.47;92.56
31585;BME280;18191;51.288;12.390;2023-04-01T04:20:23;49128.19;;;-144.47;92.85
31585;BME280;18191;51.288;12.390;2023-04-01T04:25:13;49156.03;;;-144.47;92.82
31585;BME280;18191;51.288;12.390;2023-04-01T04:30:04;49187.88;;;-144.47;93.51
31585;BME280;18191;51.288;12.390;2023-04-01T04:34:55;49142.13;;;-144.47;93.64
31585;BME280;18191;51.288;12.390;2023-04-01T04:39:45;49167.97;;;-144.47;94.77
31585;BME280;18191;51.288;12.390;2023-04-01T04:44:35;49148.09;;;-144.47;95.07
31585;BME280;18191;51.288;12.390;2023-04-01T04:49:26;49156.03;;;-144.47;94.64
31585;BME280;18191;51.288;12.390;2023-04-01T04:54:16;49114.28;;;-144.47;94.57
31585;BME280;18191;51.288;12.390;2023-04-01T04:59:06;49166.00;;;-144.47;94.54
31585;BME280;18191;51.288;12.390;2023-04-01T05:03:57;49120.25;;;-144.47;95.02
31585;BME280;18191;51.288;12.390;2023-04-01T05:08:47;49181.91;;;-144.47;94.97
31585;BME280;18191;51.288;12.390;2023-04-01T05:13:37;49166.00;;;-144.47;94.92
31585;BME280;18191;51.288;12.390;2023-04-01T05:18:27;49138.16;;;-144.47;94.03
31585;BME280;18191;51.288;12.390;2023-04-01T05:23:18;49156.03;;;-144.47;94.83
31585;BME280;18191;51.288;12.390;2023-04-01T05:28:11;49171.97;;;-144.47;93.65
31585;BME280;18191;51.288;12.390;2023-04-01T05:33:01;49164.00;;;-144.47;93.62
31585;BME280;18191;51.288;12.390;2023-04-01T05:37:51;49173.94;;;-144.47;92.68
31585;BME280;18191;51.288;12.390;2023-04-01T05:42:41;49158.03;;;-144.47;91.66
31585;BME280;18191;51.288;12.390;2023-04-01T05:47:31;49164.00;;;-144.47;91.92
31585;BME280;18191;51.288;12.390;2023-04-01T05:52:22;49140.13;;;-144.47;91.68
31585;BME280;18191;51.288;12.390;2023-04-01T05:57:12;49171.97;;;-144.47;90.36
31585;BME280;18191;51.288;12.390;2023-04-01T06:02:02;49136.16;;;-144.47;89.35
31585;BME280;18191;51.288;12.390;2023-04-01T06:06:52;49160.03;;;-144.47;89.57
31585;BME280;18191;51.288;12.390;2023-04-01T06:11:54;49158.03;;;-144.47;89.29
31585;BME280;18191;51.288;12.390;2023-04-01T06:16:56;49148.09;;;-144.47;88.93
31585;BME280;18191;51.288;12.390;2023-04-01T06:22:02;49162.00;;;-144.47;87.41
31585;BME280;18191;51.288;12.390;2023-04-01T06:27:16;49150.06;;;-144.47;87.12
31585;BME280;18191;51.288;12.390;2023-04-01T06:32:13;49164.00;;;-144.47;85.98
31585;BME280;18191;51.288;12.390;2023-04-01T06:46:57;49144.09;;;-144.47;85.00
31585;BME280;18191;51.288;12.390;2023-04-01T06:51:54;49122.22;;;-144.47;83.88
31585;BME280;18191;51.288;12.390;2023-04-01T06:56:49;49112.28;;;-144.47;84.04
31585;BME280;18191;51.288;12.390;2023-04-01T07:01:52;49116.25;;;-144.47;83.25
31585;BME280;18191;51.288;12.390;2023-04-01T07:11:35;49112.28;;;-144.47;80.90
31585;BME280;18191;51.288;12.390;2023-04-01T07:16:30;49175.94;;;-144.47;81.49
31585;BME280;18191;51.288;12.390;2023-04-01T07:21:26;49193.84;;;-144.47;80.11
31585;BME280;18191;51.288;12.390;2023-04-01T07:26:20;49110.28;;;-144.47;80.55
31585;BME280;18191;51.288;12.390;2023-04-01T07:36:38;49126.22;;;-144.47;78.00
31585;BME280;18191;51.288;12.390;2023-04-01T07:46:59;49120.25;;;-144.47;78.10
31585;BME280;18191;51.288;12.390;2023-04-01T07:57:27;49102.34;;;-144.47;75.06
31585;BME280;18191;51.288;12.390;2023-04-01T08:07:25;49167.97;;;-144.47;73.78
31585;BME280;18191;51.288;12.390;2023-04-01T08:12:21;49126.22;;;-144.47;74.25
31585;BME280;18191;51.288;12.390;2023-04-01T08:17:20;49158.03;;;-144.47;75.96
31585;BME280;18191;51.288;12.390;2023-04-01T08:22:26;49136.16;;;-144.47;73.44
31585;BME280;18191;51.288;12.390;2023-04-01T08:27:19;49154.06;;;-144.47;74.72
31585;BME280;18191;51.288;12.390;2023-04-01T08:32:16;49104.31;;;-144.47;74.89
31585;BME280;18191;51.288;12.390;2023-04-01T08:37:10;49092.38;;;-144.47;75.43
31585;BME280;18191;51.288;12.390;2023-04-01T08:57:35;49124.22;;;-144.47;69.83
31585;BME280;18191;51.288;12.390;2023-04-01T09:07:18;49104.31;;;-144.47;71.08
31585;BME280;18191;51.288;12.390;2023-04-01T09:22:15;49116.25;;;-144.47;66.30
31585;BME280;18191;51.288;12.390;2023-04-01T09:37:45;49080.44;;;-144.47;66.59
31585;BME280;18191;51.288;12.390;2023-04-01T09:47:51;49096.38;;;-144.47;68.98
31585;BME280;18191;51.288;12.390;2023-04-01T09:52:47;49100.34;;;-144.47;68.07
31585;BME280;18191;51.288;12.390;2023-04-01T09:57:59;49108.31;;;-144.47;66.71
31585;BME280;18191;51.288;12.390;2023-04-01T10:03:01;49098.34;;;-144.47;68.00
31585;BME280;18191;51.288;12.390;2023-04-01T10:18:06;49116.25;;;-144.47;70.37
31585;BME280;18191;51.288;12.390;2023-04-01T10:23:07;49106.31;;;-144.47;69.73
31585;BME280;18191;51.288;12.390;2023-04-01T10:33:09;49092.38;;;-144.47;64.58
31585;BME280;18191;51.288;12.390;2023-04-01T10:38:14;49104.31;;;-144.47;64.49
31585;BME280;18191;51.288;12.390;2023-04-01T10:43:23;49064.53;;;-144.47;63.74
31585;BME280;18191;51.288;12.390;2023-04-01T10:48:39;49108.31;;;-144.47;63.73
31585;BME280;18191;51.288;12.390;2023-04-01T11:08:56;49060.56;;;-144.47;57.50
31585;BME280;18191;51.288;12.390;2023-04-01T11:14:09;49112.28;;;-144.47;53.09
31585;BME280;18191;51.288;12.390;2023-04-01T11:24:01;49088.41;;;-144.47;55.81
31585;BME280;18191;51.288;12.390;2023-04-01T11:28:57;49088.41;;;-144.47;56.99
31585;BME280;18191;51.288;12.390;2023-04-01T11:34:13;49100.34;;;-144.47;57.90
31585;BME280;18191;51.288;12.390;2023-04-01T11:44:27;49088.41;;;-144.47;62.89
31585;BME280;18191;51.288;12.390;2023-04-01T11:49:23;49070.50;;;-144.47;65.93
31585;BME280;18191;51.288;12.390;2023-04-01T11:59:38;49126.22;;;-144.47;68.14
31585;BME280;18191;51.288;12.390;2023-04-01T12:04:39;49100.34;;;-144.47;68.55
31585;BME280;18191;51.288;12.390;2023-04-01T12:09:37;49126.22;;;-144.47;70.84
31585;BME280;18191;51.288;12.390;2023-04-01T12:14:37;49142.13;;;-144.47;71.62
31585;BME280;18191;51.288;12.390;2023-04-01T12:19:35;49116.25;;;-144.47;71.20
31585;BME280;18191;51.288;12.390;2023-04-01T12:25:07;49096.38;;;-144.47;67.73
31585;BME280;18191;51.288;12.390;2023-04-01T12:35:03;49100.34;;;-144.47;67.84
31585;BME280;18191;51.288;12.390;2023-04-01T12:40:06;49098.34;;;-144.47;67.38
31585;BME280;18191;51.288;12.390;2023-04-01T12:45:20;49088.41;;;-144.47;64.02
31585;BME280;18191;51.288;12.390;2023-04-01T12:50:22;49108.31;;;-144.47;62.31
31585;BME280;18191;51.288;12.390;2023-04-01T13:00:25;49088.41;;;-144.47;63.41
31585;BME280;18191;51.288;12.390;2023-04-01T13:05:32;49160.03;;;-144.47;62.63
31585;BME280;18191;51.288;12.390;2023-04-01T13:10:29;49080.44;;;-144.47;63.83
31585;BME280;18191;51.288;12.390;2023-04-01T13:15:25;49128.19;;;-144.47;64.33
31585;BME280;18191;51.288;12.390;2023-04-01T13:35:36;49064.53;;;-144.47;65.19
31585;BME280;18191;51.288;12.390;2023-04-01T13:40:33;49094.38;;;-144.47;65.95
31585;BME280;18191;51.288;12.390;2023-04-01T13:50:37;49114.28;;;-144.47;69.14
31585;BME280;18191;51.288;12.390;2023-04-01T13:55:49;49144.09;;;-144.47;70.23
31585;BME280;18191;51.288;12.390;2023-04-01T14:00:54;49120.25;;;-144.47;70.38
31585;BME280;18191;51.288;12.390;2023-04-01T14:10:58;49167.97;;;-144.47;73.38
31585;BME280;18191;51.288;12.390;2023-04-01T14:16:11;49152.06;;;-144.47;73.77
31585;BME280;18191;51.288;12.390;2023-04-01T14:21:08;49124.22;;;-144.47;74.13
31585;BME280;18191;51.288;12.390;2023-04-01T14:26:16;49126.22;;;-144.47;73.71
31585;BME280;18191;51.288;12.390;2023-04-01T14:31:15;49136.16;;;-144.47;71.03
31585;BME280;18191;51.288;12.390;2023-04-01T14:36:22;49108.31;;;-144.47;74.84
31585;BME280;18191;51.288;12.390;2023-04-01T14:41:20;49134.16;;;-144.47;74.80
31585;BME280;18191;51.288;12.390;2023-04-01T14:46:19;49112.28;;;-144.47;74.79
31585;BME280;18191;51.288;12.390;2023-04-01T14:51:16;49132.16;;;-144.47;73.06
31585;BME280;18191;51.288;12.390;2023-04-01T14:56:08;49116.25;;;-144.47;76.48
31585;BME280;18191;51.288;12.390;2023-04-01T15:06:08;49114.28;;;-144.47;77.77
31585;BME280;18191;51.288;12.390;2023-04-01T15:11:35;49120.25;;;-144.47;77.83
31585;BME280;18191;51.288;12.390;2023-04-01T15:26:19;49140.13;;;-144.47;80.87
31585;BME280;18191;51.288;12.390;2023-04-01T15:41:10;49138.16;;;-144.47;78.36
31585;BME280;18191;51.288;12.390;2023-04-01T15:46:14;49120.25;;;-144.47;80.60
31585;BME280;18191;51.288;12.390;2023-04-01T15:51:11;49144.09;;;-144.47;81.47
31585;BME280;18191;51.288;12.390;2023-04-01T15:56:51;49126.22;;;-144.47;81.74
31585;BME280;18191;51.288;12.390;2023-04-01T16:01:34;49156.03;;;-144.47;82.28
31585;BME280;18191;51.288;12.390;2023-04-01T16:06:40;49136.16;;;-144.47;82.11
31585;BME280;18191;51.288;12.390;2023-04-01T16:16:34;49128.19;;;-144.47;82.88
31585;BME280;18191;51.288;12.390;2023-04-01T16:21:41;49140.13;;;-144.47;83.50
31585;BME280;18191;51.288;12.390;2023-04-01T16:26:37;49128.19;;;-144.47;82.49
31585;BME280;18191;51.288;12.390;2023-04-01T16:36:36;49126.22;;;-144.47;83.90
31585;BME280;18191;51.288;12.390;2023-04-01T16:41:29;49156.03;;;-144.47;84.87
31585;BME280;18191;51.288;12.390;2023-04-01T16:51:12;49144.09;;;-144.47;86.30
31585;BME280;18191;51.288;12.390;2023-04-01T16:56:11;49156.03;;;-144.47;86.14
31585;BME280;18191;51.288;12.390;2023-04-01T17:01:04;49108.31;;;-144.47;88.28
31585;BME280;18191;51.288;12.390;2023-04-01T17:11:08;49187.88;;;-144.47;89.22
31585;BME280;18191;51.288;12.390;2023-04-01T17:20:54;49126.22;;;-144.47;87.56
31585;BME280;18191;51.288;12.390;2023-04-01T17:30:58;49167.97;;;-144.47;90.44
31585;BME280;18191;51.288;12.390;2023-04-01T17:40:45;49144.09;;;-144.47;90.47
31585;BME280;18191;51.288;12.390;2023-04-01T17:45:54;49100.34;;;-144.47;90.38
31585;BME280;18191;51.288;12.390;2023-04-01T18:00:55;49152.06;;;-144.47;89.51
31585;BME280;18191;51.288;12.390;2023-04-01T18:16:00;49136.16;;;-144.47;91.05
31585;BME280;18191;51.288;12.390;2023-04-01T18:25:43;49156.03;;;-144.47;91.31
31585;BME280;18191;51.288;12.390;2023-04-01T18:30:36;49154.06;;;-144.47;91.77
31585;BME280;18191;51.288;12.390;2023-04-01T18:35:29;49179.91;;;-144.47;91.80
31585;BME280;18191;51.288;12.390;2023-04-01T18:40:33;49171.97;;;-144.47;92.27
31585;BME280;18191;51.288;12.390;2023-04-01T18:45:27;49136.16;;;-144.47;92.84
31585;BME280;18191;51.288;12.390;2023-04-01T19:00:21;49191.84;;;-144.47;93.22
31585;BME280;18191;51.288;12.390;2023-04-01T19:05:19;49146.09;;;-144.47;92.78
31585;BME280;18191;51.288;12.390;2023-04-01T19:15:22;49169.97;;;-144.47;92.56
31585;BME280;18191;51.288;12.390;2023-04-01T19:20:29;49164.00;;;-144.47;92.27
31585;BME280;18191;51.288;12.390;2023-04-01T19:25:23;49140.13;;;-144.47;91.29
31585;BME280;18191;51.288;12.390;2023-04-01T19:35:11;49175.94;;;-144.47;89.80
31585;BME280;18191;51.288;12.390;2023-04-01T19:45:43;49154.06;;;-144.47;92.12
31585;BME280;18191;51.288;12.390;2023-04-01T19:55:50;49148.09;;;-144.47;94.43
31585;BME280;18191;51.288;12.390;2023-04-01T20:00:51;49179.91;;;-144.47;94.41
31585;BME280;18191;51.288;12.390;2023-04-01T20:06:00;49187.88;;;-144.47;94.70
31585;BME280;18191;51.288;12.390;2023-04-01T20:15:59;49166.00;;;-144.47;95.67
31585;BME280;18191;51.288;12.390;2023-04-01T20:20:57;49166.00;;;-144.47;94.64
31585;BME280;18191;51.288;12.390;2023-04-01T20:25:51;49171.97;;;-144.47;95.46
31585;BME280;18191;51.288;12.390;2023-04-01T20:30:46;49171.97;;;-144.47;94.56
31585;BME280;18191;51.288;12.390;2023-04-01T20:35:50;49185.88;;;-144.47;94.26
31585;BME280;18191;51.288;12.390;2023-04-01T20:40:51;49167.97;;;-144.47;94.78
31585;BME280;18191;51.288;12.390;2023-04-01T20:45:48;49215.72;;;-144.47;95.13
31585;BME280;18191;51.288;12.390;2023-04-01T21:11:33;49156.03;;;-144.47;94.54
31585;BME280;18191;51.288;12.390;2023-04-01T21:21:15;49144.09;;;-144.47;94.76
31585;BME280;18191;51.288;12.390;2023-04-01T21:36:36;49205.78;;;-144.47;94.70
31585;BME280;18191;51.288;12.390;2023-04-01T21:46:38;49152.06;;;-144.47;94.32
31585;BME280;18191;51.288;12.390;2023-04-01T21:51:43;49162.00;;;-144.47;96.46
31585;BME280;18191;51.288;12.390;2023-04-01T21:56:49;49140.13;;;-144.47;97.24
31585;BME280;18191;51.288;12.390;2023-04-01T22:02:05;49217.72;;;-144.47;96.23
31585;BME280;18191;51.288;12.390;2023-04-01T22:07:02;49146.09;;;-144.47;97.07
31585;BME280;18191;51.288;12.390;2023-04-01T22:17:30;49187.88;;;-144.47;97.45
31585;BME280;18191;51.288;12.390;2023-04-01T22:22:28;49140.13;;;-144.47;96.75
31585;BME280;18191;51.288;12.390;2023-04-01T22:27:23;49156.03;;;-144.47;96.71
31585;BME280;18191;51.288;12.390;2023-04-01T22:32:16;49179.91;;;-144.47;96.46
31585;BME280;18191;51.288;12.390;2023-04-01T22:43:06;49187.88;;;-144.47;96.28
31585;BME280;18191;51.288;12.390;2023-04-01T23:02:32;49148.09;;;-144.47;96.38
31585;BME280;18191;51.288;12.390;2023-04-01T23:07:31;49154.06;;;-144.47;96.72
31585;BME280;18191;51.288;12.390;2023-04-01T23:12:25;49152.06;;;-144.47;96.90
31585;BME280;18191;51.288;12.390;2023-04-01T23:17:34;49134.16;;;-144.47;97.72
31585;BME280;18191;51.288;12.390;2023-04-01T23:22:37;49128.19;;;-144.47;96.87
31585;BME280;18191;51.288;12.390;2023-04-01T23:27:31;49175.94;;;-144.47;97.84
31585;BME280;18191;51.288;12.390;2023-04-01T23:32:24;49156.03;;;-144.47;97.03
31585;BME280;18191;51.288;12.390;2023-04-01T23:37:16;49156.03;;;-144.47;96.28
31585;BME280;18191;51.288;12.390;2023-04-01T23:42:21;49167.97;;;-144.47;95.43
31585;BME280;18191;51.288;12.390;2023-04-01T23:47:17;49185.88;;;-144.47;97.13
31585;BME280;18191;51.288;12.390;2023-04-01T23:57:12;49167.97;;;-144.47;98.01
